Time;durP1;ratioP1;P1;durP2;ratioP2;P2;SDS_P1;SDS_P2;PMS_P1;PMS_P2;Temp;Humidity;BMP_temperature;BMP_pressure;BME280_temperature;BME280_humidity;BME280_pressure;Samples;Min_cycle;Max_cycle;Signal;HPM_P1;HPM_P2
2022/03/05 00:00:45;;;;;;;10.98;3.15;;;1.90;99.90;;;;;;5004886;28;20042;-71
2022/03/05 00:03:13;;;;;;;7.03;2.92;;;1.80;99.90;;;;;;5004329;28;20048;-72
2022/03/05 00:05:39;;;;;;;6.03;2.97;;;1.80;99.90;;;;;;5004980;28;20053;-72
2022/03/05 00:08:07;;;;;;;5.97;2.53;;;1.80;99.90;;;;;;4965967;28;1110235;-74
2022/03/05 00:10:33;;;;;;;5.18;2.17;;;1.80;99.90;;;;;;4988026;28;20045;-73
2022/03/05 00:12:59;;;;;;;6.45;3.00;;;1.70;99.90;;;;;;4987828;28;20034;-73
2022/03/05 00:15:25;;;;;;;7.47;2.50;;;1.70;99.90;;;;;;5004762;28;20034;-71
2022/03/05 00:17:52;;;;;;;4.43;2.58;;;1.70;99.90;;;;;;5005429;28;20045;-73
2022/03/05 00:20:21;;;;;;;9.88;2.53;;;1.70;99.90;;;;;;5005408;28;20033;-72
2022/03/05 00:22:47;;;;;;;4.82;2.00;;;1.70;99.90;;;;;;5005210;28;20034;-73
2022/03/05 00:25:13;;;;;;;4.95;2.42;;;1.60;99.90;;;;;;5003448;28;20058;-73
2022/03/05 00:27:41;;;;;;;4.75;2.60;;;1.60;99.90;;;;;;4984622;28;20046;-73
2022/03/05 00:30:07;;;;;;;5.55;2.45;;;1.60;99.90;;;;;;4985765;28;20049;-74
2022/03/05 00:32:34;;;;;;;6.40;3.17;;;1.60;99.90;;;;;;4986005;28;20027;-72
2022/03/05 00:35:07;;;;;;;6.50;2.75;;;1.60;99.90;;;;;;4992743;28;20125;-72
2022/03/05 00:37:33;;;;;;;5.85;2.25;;;1.50;99.90;;;;;;5005268;28;20424;-73
2022/03/05 00:39:58;;;;;;;8.32;2.25;;;1.50;99.90;;;;;;5005023;28;20085;-72
2022/03/05 00:42:24;;;;;;;7.70;2.95;;;1.40;99.90;;;;;;4987649;28;20048;-73
2022/03/05 00:44:53;;;;;;;6.03;2.92;;;1.40;99.90;;;;;;5004789;28;20091;-72
2022/03/05 00:47:19;;;;;;;5.47;1.98;;;1.30;99.90;;;;;;5005170;28;20034;-72
2022/03/05 00:49:44;;;;;;;7.68;3.30;;;1.30;99.90;;;;;;5005245;28;20033;-71
2022/03/05 00:52:10;;;;;;;4.88;2.00;;;1.20;99.90;;;;;;5004850;28;20030;-73
2022/03/05 00:54:36;;;;;;;6.72;2.55;;;1.20;99.90;;;;;;4986970;28;20030;-73
2022/03/05 00:57:02;;;;;;;7.25;3.15;;;1.20;99.90;;;;;;5005113;28;20084;-72
2022/03/05 00:59:28;;;;;;;8.38;3.72;;;1.20;99.90;;;;;;5004692;28;20065;-71
2022/03/05 01:01:54;;;;;;;4.60;1.90;;;1.10;99.90;;;;;;5005036;28;20038;-72
2022/03/05 01:04:20;;;;;;;17.70;3.15;;;1.10;99.90;;;;;;5004974;28;20501;-72
2022/03/05 01:06:46;;;;;;;5.53;2.63;;;1.10;99.90;;;;;;5007886;28;20022;-72
2022/03/05 01:09:11;;;;;;;7.47;3.30;;;1.10;99.90;;;;;;5008813;28;20121;-72
2022/03/05 01:11:38;;;;;;;5.97;2.33;;;1.10;99.90;;;;;;5008519;28;20030;-73
2022/03/05 01:14:07;;;;;;;5.63;2.35;;;1.10;99.90;;;;;;4991252;28;20033;-72
2022/03/05 01:16:34;;;;;;;8.18;2.15;;;1.00;99.90;;;;;;5008882;28;20455;-71
2022/03/05 01:19:00;;;;;;;6.10;2.22;;;1.10;99.90;;;;;;5008313;28;20466;-72
2022/03/05 01:21:27;;;;;;;12.50;2.58;;;1.00;99.90;;;;;;4990911;28;20034;-72
2022/03/05 01:23:53;;;;;;;4.85;2.17;;;1.00;99.90;;;;;;5008507;28;20034;-72
2022/03/05 01:26:19;;;;;;;6.38;2.60;;;1.00;99.90;;;;;;5008188;28;20058;-72
2022/03/05 01:28:45;;;;;;;8.40;3.17;;;0.90;99.90;;;;;;4990956;28;20034;-73
2022/03/05 01:31:11;;;;;;;4.85;2.47;;;1.00;99.90;;;;;;5008544;28;20109;-72
2022/03/05 01:33:37;;;;;;;7.18;2.35;;;0.90;99.90;;;;;;5007935;28;20031;-73
2022/03/05 01:36:03;;;;;;;7.00;2.65;;;0.90;99.90;;;;;;5008485;28;20847;-72
2022/03/05 01:38:29;;;;;;;5.32;2.90;;;0.90;99.90;;;;;;5008128;28;20034;-71
2022/03/05 01:40:54;;;;;;;4.68;2.35;;;0.90;99.90;;;;;;4990290;28;20054;-74
2022/03/05 01:43:20;;;;;;;10.85;3.45;;;0.80;99.90;;;;;;5008188;28;20034;-72
2022/03/05 01:45:45;;;;;;;5.80;2.60;;;0.80;99.90;;;;;;5008040;28;20085;-72
2022/03/05 01:48:11;;;;;;;6.90;2.17;;;0.80;99.90;;;;;;5007693;28;20034;-72
2022/03/05 01:50:38;;;;;;;5.55;2.53;;;0.70;99.90;;;;;;4990549;28;20115;-74
2022/03/05 01:53:05;;;;;;;4.95;2.10;;;0.70;99.90;;;;;;4989516;28;20122;-73
2022/03/05 01:55:31;;;;;;;6.28;2.55;;;0.70;99.90;;;;;;5007859;28;20027;-72
2022/03/05 01:57:57;;;;;;;6.72;2.33;;;0.60;99.90;;;;;;5007942;28;20479;-73
2022/03/05 02:00:23;;;;;;;4.97;2.00;;;0.60;99.90;;;;;;5007576;28;20064;-74
2022/03/05 02:02:48;;;;;;;6.70;2.58;;;0.70;99.90;;;;;;5007491;28;20026;-72
2022/03/05 02:05:14;;;;;;;4.28;2.55;;;0.60;99.90;;;;;;5007838;28;20501;-74
2022/03/05 02:07:40;;;;;;;6.55;2.05;;;0.60;99.90;;;;;;5007238;28;20042;-73
2022/03/05 02:10:08;;;;;;;6.80;2.30;;;0.60;99.90;;;;;;4990095;28;20057;-72
2022/03/05 02:12:37;;;;;;;5.43;2.20;;;0.60;99.90;;;;;;5007877;28;20045;-73
2022/03/05 02:15:06;;;;;;;4.70;2.17;;;0.60;99.90;;;;;;5007486;28;20042;-72
2022/03/05 02:17:32;;;;;;;5.55;2.67;;;0.60;99.90;;;;;;5005540;28;20076;-73
2022/03/05 02:19:58;;;;;;;4.75;2.35;;;0.60;99.90;;;;;;5007580;28;20097;-72
2022/03/05 02:22:25;;;;;;;5.57;2.28;;;0.60;99.90;;;;;;4991322;28;20042;-71
2022/03/05 02:24:55;;;;;;;5.15;2.10;;;0.60;99.90;;;;;;4987661;28;20467;-72
2022/03/05 02:27:24;;;;;;;9.65;2.47;;;0.50;99.90;;;;;;4987722;28;20023;-73
2022/03/05 02:29:51;;;;;;;14.50;3.58;;;0.50;99.90;;;;;;4987513;28;20031;-74
2022/03/05 02:32:17;;;;;;;10.68;2.42;;;0.50;99.90;;;;;;4987552;28;20487;-72
2022/03/05 02:34:43;;;;;;;4.28;1.65;;;0.50;99.90;;;;;;4987774;28;20054;-73
2022/03/05 02:37:11;;;;;;;6.88;2.17;;;0.50;99.90;;;;;;4988996;28;20041;-74
2022/03/05 02:39:37;;;;;;;10.10;2.67;;;0.50;99.90;;;;;;5006794;28;20356;-73
2022/03/05 02:42:04;;;;;;;3.63;2.05;;;0.50;99.90;;;;;;5007208;28;20073;-71
2022/03/05 02:44:29;;;;;;;3.58;2.17;;;0.50;99.90;;;;;;5006819;28;20038;-72
2022/03/05 02:46:56;;;;;;;4.43;1.95;;;0.40;99.90;;;;;;5005431;28;20031;-71
2022/03/05 02:49:24;;;;;;;6.72;2.35;;;0.40;99.90;;;;;;5007051;28;20018;-74
2022/03/05 02:51:50;;;;;;;5.07;1.80;;;0.40;99.90;;;;;;4988826;28;20047;-72
2022/03/05 02:54:16;;;;;;;4.18;1.90;;;0.40;99.90;;;;;;5006758;28;20031;-71
2022/03/05 02:56:42;;;;;;;10.50;2.35;;;0.40;99.90;;;;;;4989314;28;20034;-74
2022/03/05 02:59:08;;;;;;;4.93;2.13;;;0.30;99.90;;;;;;4989173;28;20030;-72
2022/03/05 03:01:34;;;;;;;2.83;1.80;;;0.30;99.90;;;;;;5006853;28;20035;-71
2022/03/05 03:04:00;;;;;;;8.38;2.35;;;0.30;99.90;;;;;;5006591;28;20030;-73
2022/03/05 03:06:26;;;;;;;3.47;2.08;;;0.30;99.90;;;;;;5006162;28;20065;-72
2022/03/05 03:08:51;;;;;;;5.82;2.35;;;0.30;99.90;;;;;;5006559;28;20054;-71
2022/03/05 03:11:18;;;;;;;11.07;2.83;;;0.30;99.90;;;;;;5006526;28;20045;-71
2022/03/05 03:13:44;;;;;;;10.40;2.55;;;0.20;99.90;;;;;;5006050;28;20031;-72
2022/03/05 03:16:09;;;;;;;3.65;1.75;;;0.20;99.90;;;;;;5006533;28;20037;-73
2022/03/05 03:18:35;;;;;;;5.13;2.17;;;0.20;99.90;;;;;;5006270;28;20038;-73
2022/03/05 03:21:01;;;;;;;3.90;2.17;;;0.10;99.90;;;;;;5006202;28;20372;-71
2022/03/05 03:23:26;;;;;;;6.50;2.63;;;0.10;99.90;;;;;;5006427;28;20368;-72
2022/03/05 03:25:52;;;;;;;6.78;2.40;;;0.10;99.90;;;;;;5006023;28;20035;-72
2022/03/05 03:28:17;;;;;;;6.18;2.30;;;0.10;99.90;;;;;;4987970;28;20027;-71
2022/03/05 03:30:43;;;;;;;7.78;2.75;;;0.10;99.90;;;;;;5006004;28;20030;-72
2022/03/05 03:33:10;;;;;;;4.38;2.33;;;0.10;99.90;;;;;;5006104;28;20018;-71
2022/03/05 03:35:36;;;;;;;3.83;1.88;;;0.10;99.90;;;;;;5005149;28;20037;-71
2022/03/05 03:38:02;;;;;;;5.10;2.58;;;0.00;99.90;;;;;;5005987;28;20035;-73
2022/03/05 03:40:31;;;;;;;8.73;2.92;;;0.00;99.90;;;;;;4987945;28;20459;-71
2022/03/05 03:42:57;;;;;;;6.22;2.55;;;0.00;99.90;;;;;;5006117;28;20094;-72
2022/03/05 03:45:23;;;;;;;7.78;2.75;;;0.00;99.90;;;;;;4988395;28;20033;-71
2022/03/05 03:47:51;;;;;;;3.53;2.65;;;0.00;99.90;;;;;;4987950;28;20047;-71
2022/03/05 03:50:19;;;;;;;8.90;2.53;;;0.00;99.90;;;;;;5005872;28;20022;-71
2022/03/05 03:52:45;;;;;;;8.15;2.40;;;0.00;99.90;;;;;;5005732;28;20037;-71
2022/03/05 03:55:14;;;;;;;4.50;2.13;;;0.00;99.90;;;;;;5005613;28;20033;-72
2022/03/05 03:57:40;;;;;;;5.65;2.25;;;-0.10;99.90;;;;;;5005875;28;20074;-71
2022/03/05 04:00:09;;;;;;;3.88;1.73;;;-0.10;99.90;;;;;;5005416;28;20022;-72
2022/03/05 04:02:35;;;;;;;4.57;2.03;;;-0.10;99.90;;;;;;5005631;28;20070;-71
2022/03/05 04:05:01;;;;;;;3.08;1.98;;;-0.10;99.90;;;;;;4988317;28;20038;-71
2022/03/05 04:10:11;;;;;;;5.45;1.95;;;-0.20;99.90;;;;;;5005770;28;20032;-71
2022/03/05 04:12:37;;;;;;;3.75;1.92;;;-0.20;99.90;;;;;;5005593;28;20066;-72
2022/03/05 04:15:04;;;;;;;6.15;2.15;;;-0.20;99.90;;;;;;5005234;28;20068;-72
2022/03/05 04:17:30;;;;;;;2.85;1.33;;;-0.30;99.90;;;;;;5005560;28;20041;-71
2022/03/05 04:19:55;;;;;;;6.85;2.15;;;-0.30;99.90;;;;;;5005145;28;20030;-71
2022/03/05 04:22:21;;;;;;;6.40;2.35;;;-0.20;99.90;;;;;;5005073;28;20502;-70
2022/03/05 04:24:46;;;;;;;9.18;2.00;;;-0.20;99.90;;;;;;5005377;28;20031;-70
2022/03/05 04:27:13;;;;;;;6.53;2.15;;;-0.20;99.90;;;;;;4987699;28;20493;-71
2022/03/05 04:29:39;;;;;;;2.72;1.25;;;-0.30;99.90;;;;;;4987913;28;20094;-73
2022/03/05 04:32:05;;;;;;;8.48;2.05;;;-0.30;99.90;;;;;;5005469;28;20027;-72
2022/03/05 04:34:31;;;;;;;2.85;1.52;;;-0.40;99.90;;;;;;4987540;28;20038;-71
2022/03/05 04:36:56;;;;;;;3.47;1.50;;;-0.30;99.90;;;;;;5005400;28;20034;-71
2022/03/05 04:39:22;;;;;;;6.55;1.45;;;-0.40;99.90;;;;;;5004873;28;20026;-72
2022/03/05 04:41:48;;;;;;;3.40;1.38;;;-0.40;99.90;;;;;;5008679;28;20066;-71
2022/03/05 04:44:14;;;;;;;2.90;1.27;;;-0.40;99.90;;;;;;5009153;28;20065;-73
2022/03/05 04:46:40;;;;;;;4.82;1.38;;;-0.40;99.90;;;;;;5009220;28;20117;-72
2022/03/05 04:49:06;;;;;;;2.45;1.33;;;-0.40;99.90;;;;;;5008942;28;20019;-72
2022/03/05 04:51:32;;;;;;;7.63;2.63;;;-0.40;99.90;;;;;;5009226;28;20141;-71
2022/03/05 04:53:57;;;;;;;5.43;1.80;;;-0.40;99.90;;;;;;5008810;28;20030;-72
2022/03/05 04:56:23;;;;;;;7.20;2.13;;;-0.40;99.90;;;;;;5008928;28;20026;-71
2022/03/05 04:58:48;;;;;;;4.45;1.35;;;-0.50;99.90;;;;;;5009114;28;20385;-72
2022/03/05 05:01:14;;;;;;;2.63;1.80;;;-0.50;99.90;;;;;;5008592;28;20047;-71
2022/03/05 05:03:40;;;;;;;3.03;1.27;;;-0.50;99.90;;;;;;5008784;28;20076;-73
2022/03/05 05:06:06;;;;;;;3.83;1.67;;;-0.50;99.90;;;;;;5008896;28;20041;-71
2022/03/05 05:08:32;;;;;;;6.25;1.20;;;-0.50;99.90;;;;;;5008469;28;20065;-71
2022/03/05 05:10:58;;;;;;;5.05;1.85;;;-0.50;99.90;;;;;;4990893;28;20026;-71
2022/03/05 05:13:27;;;;;;;6.72;2.38;;;-0.50;99.90;;;;;;5008826;28;20030;-71
2022/03/05 05:15:52;;;;;;;2.75;1.52;;;-0.50;99.90;;;;;;4990772;28;20030;-71
2022/03/05 05:18:18;;;;;;;3.35;1.52;;;-0.50;99.90;;;;;;4991014;28;20031;-70
2022/03/05 05:20:43;;;;;;;2.80;1.75;;;-0.50;99.90;;;;;;4990895;28;20062;-71
2022/03/05 05:23:09;;;;;;;6.30;2.00;;;-0.50;99.90;;;;;;5008281;28;20026;-71
2022/03/05 05:25:35;;;;;;;2.85;1.33;;;-0.50;99.90;;;;;;5008564;28;20039;-71
2022/03/05 05:28:01;;;;;;;3.72;1.30;;;-0.60;99.90;;;;;;5008647;28;20030;-70
2022/03/05 05:30:26;;;;;;;7.50;1.77;;;-0.60;99.90;;;;;;5008108;28;20062;-71
2022/03/05 05:32:52;;;;;;;2.47;1.38;;;-0.60;99.90;;;;;;5008617;28;20467;-70
2022/03/05 05:35:17;;;;;;;2.20;1.33;;;-0.60;99.90;;;;;;4990761;28;20085;-71
2022/03/05 05:37:43;;;;;;;3.58;2.10;;;-0.60;99.90;;;;;;4990332;28;20034;-70
2022/03/05 05:40:10;;;;;;;2.05;1.30;;;-0.70;99.90;;;;;;4990706;28;20026;-73
2022/03/05 05:42:35;;;;;;;3.28;1.52;;;-0.70;99.90;;;;;;5008270;28;20043;-71
2022/03/05 05:45:01;;;;;;;5.82;1.80;;;-0.70;99.90;;;;;;5007955;28;20026;-74
2022/03/05 05:47:26;;;;;;;4.50;1.48;;;-0.70;99.90;;;;;;5008269;28;20026;-71
2022/03/05 05:49:52;;;;;;;4.18;1.48;;;-0.70;99.90;;;;;;5008107;28;20033;-71
2022/03/05 05:52:18;;;;;;;13.77;1.45;;;-0.70;99.90;;;;;;5007204;28;20023;-70
2022/03/05 05:54:44;;;;;;;3.17;1.63;;;-0.80;99.90;;;;;;5007971;28;20061;-72
2022/03/05 05:57:10;;;;;;;4.53;1.80;;;-0.80;99.90;;;;;;5008010;28;20386;-71
2022/03/05 05:59:36;;;;;;;4.63;1.38;;;-0.80;99.90;;;;;;5007651;28;20022;-72
2022/03/05 06:02:02;;;;;;;2.28;1.50;;;-0.80;99.90;;;;;;5007913;28;20065;-71
2022/03/05 06:04:28;;;;;;;4.03;1.48;;;-0.80;99.90;;;;;;5007661;28;20045;-70
2022/03/05 06:06:54;;;;;;;2.15;1.33;;;-0.90;99.90;;;;;;5006869;28;20027;-71
2022/03/05 06:09:19;;;;;;;4.03;1.88;;;-0.90;99.90;;;;;;5003441;28;20026;-71
2022/03/05 06:11:45;;;;;;;3.95;1.52;;;-0.90;99.90;;;;;;5002846;28;20064;-70
2022/03/05 06:14:10;;;;;;;3.85;1.83;;;-0.80;99.90;;;;;;4999133;28;20027;-72
2022/03/05 06:16:36;;;;;;;1.70;1.13;;;-0.90;99.90;;;;;;5007837;28;20034;-72
2022/03/05 06:19:02;;;;;;;3.10;1.50;;;-0.90;99.90;;;;;;5007157;28;20057;-72
2022/03/05 06:21:28;;;;;;;3.08;1.30;;;-0.90;99.90;;;;;;5006969;28;20054;-70
2022/03/05 06:23:53;;;;;;;3.03;1.77;;;-0.90;99.90;;;;;;5007259;28;20023;-70
2022/03/05 06:26:19;;;;;;;2.60;1.13;;;-0.90;99.90;;;;;;5007268;28;20034;-71
2022/03/05 06:28:44;;;;;;;4.03;1.77;;;-0.90;99.90;;;;;;4993503;28;20026;-72
2022/03/05 06:31:10;;;;;;;7.85;1.63;;;-0.80;99.90;;;;;;5007266;28;20086;-71
2022/03/05 06:33:36;;;;;;;5.05;1.45;;;-0.80;99.90;;;;;;5006860;28;20042;-73
2022/03/05 06:36:02;;;;;;;7.25;1.85;;;-0.80;99.90;;;;;;5007512;28;20037;-71
2022/03/05 06:38:27;;;;;;;1.48;1.17;;;-0.80;99.90;;;;;;5007223;28;20049;-71
2022/03/05 06:40:53;;;;;;;3.00;1.23;;;-0.80;99.90;;;;;;5006759;28;20086;-71
2022/03/05 06:43:19;;;;;;;2.28;1.20;;;-0.70;99.90;;;;;;5006504;28;20041;-70
2022/03/05 06:45:44;;;;;;;2.85;1.27;;;-0.70;99.90;;;;;;4996645;28;20031;-70
2022/03/05 06:48:11;;;;;;;2.38;1.23;;;-0.70;99.90;;;;;;5001677;28;20066;-72
2022/03/05 06:50:37;;;;;;;4.28;1.60;;;-0.70;99.90;;;;;;4987369;28;20030;-71
2022/03/05 06:53:04;;;;;;;4.13;1.60;;;-0.70;99.90;;;;;;4986969;28;20089;-70
2022/03/05 06:55:30;;;;;;;5.50;1.77;;;-0.60;99.90;;;;;;4980904;28;20542;-69
2022/03/05 06:57:56;;;;;;;5.00;1.80;;;-0.60;99.90;;;;;;4998275;28;20023;-70
2022/03/05 07:00:21;;;;;;;9.00;1.73;;;-0.50;99.90;;;;;;4983054;28;20031;-70
2022/03/05 07:02:47;;;;;;;4.47;1.42;;;-0.50;99.90;;;;;;5004942;28;20026;-70
2022/03/05 07:05:17;;;;;;;3.63;1.48;;;-0.40;99.90;;;;;;5001351;28;20509;-70
2022/03/05 07:07:43;;;;;;;3.45;1.40;;;-0.30;99.90;;;;;;5000154;28;20069;-69
2022/03/05 07:10:10;;;;;;;2.20;1.40;;;-0.20;99.90;;;;;;5002473;28;20090;-70
2022/03/05 07:12:36;;;;;;;6.22;1.88;;;-0.20;99.90;;;;;;5000718;28;20058;-70
2022/03/05 07:15:02;;;;;;;2.97;1.90;;;-0.10;99.90;;;;;;4986962;28;20034;-69
2022/03/05 07:17:29;;;;;;;2.72;1.52;;;0.00;99.90;;;;;;5003124;28;20037;-70
2022/03/05 07:19:55;;;;;;;3.97;1.30;;;0.10;99.90;;;;;;5005406;28;20040;-70
2022/03/05 07:22:21;;;;;;;6.38;1.88;;;0.20;99.90;;;;;;5000365;28;20102;-70
2022/03/05 07:24:47;;;;;;;3.75;1.55;;;0.30;99.90;;;;;;4998987;28;20038;-69
2022/03/05 07:27:12;;;;;;;9.05;1.85;;;0.40;99.90;;;;;;5004283;28;20026;-70
2022/03/05 07:29:39;;;;;;;5.03;1.60;;;0.50;99.90;;;;;;5005678;28;20038;-70
2022/03/05 07:32:06;;;;;;;2.97;1.83;;;0.50;99.90;;;;;;5006153;28;20038;-70
2022/03/05 07:34:32;;;;;;;6.70;1.83;;;0.60;99.90;;;;;;5005295;28;20030;-70
2022/03/05 07:36:58;;;;;;;7.45;1.75;;;0.60;99.90;;;;;;5001978;28;20030;-71
2022/03/05 07:39:25;;;;;;;3.95;1.77;;;0.70;99.90;;;;;;5005698;28;20085;-70
2022/03/05 07:41:50;;;;;;;3.60;1.65;;;0.80;99.90;;;;;;5005078;28;20046;-70
2022/03/05 07:44:16;;;;;;;5.63;2.15;;;0.90;99.90;;;;;;5004765;28;20042;-69
2022/03/05 07:46:42;;;;;;;7.40;2.05;;;1.20;99.90;;;;;;5005269;28;20037;-70
2022/03/05 07:49:07;;;;;;;3.72;1.70;;;1.50;99.90;;;;;;5004840;28;20034;-72
2022/03/05 07:51:34;;;;;;;7.50;1.75;;;1.70;99.90;;;;;;5006006;28;20027;-70
2022/03/05 07:53:59;;;;;;;8.50;1.80;;;2.00;99.90;;;;;;4985253;28;20398;-70
2022/03/05 07:56:25;;;;;;;8.05;2.22;;;2.20;99.90;;;;;;5004718;28;20045;-70
2022/03/05 07:58:51;;;;;;;6.05;1.95;;;2.40;99.90;;;;;;4993066;28;20023;-70
2022/03/05 08:01:17;;;;;;;4.57;1.90;;;2.60;99.90;;;;;;4997494;28;20053;-71
2022/03/05 08:03:42;;;;;;;5.00;1.85;;;2.90;99.90;;;;;;5005265;28;20033;-71
2022/03/05 08:06:08;;;;;;;3.53;1.85;;;3.00;99.90;;;;;;4987200;28;20036;-72
2022/03/05 08:08:34;;;;;;;8.82;2.13;;;3.20;99.90;;;;;;5005366;28;20065;-72
2022/03/05 08:11:00;;;;;;;11.52;2.40;;;3.30;99.90;;;;;;5005548;28;20038;-71
2022/03/05 08:13:28;;;;;;;5.88;2.10;;;3.50;99.90;;;;;;5005440;28;20026;-71
2022/03/05 08:15:54;;;;;;;3.97;1.73;;;3.80;99.90;;;;;;5005139;28;20387;-72
2022/03/05 08:18:21;;;;;;;4.53;1.65;;;4.00;99.90;;;;;;5005431;28;20030;-72
2022/03/05 08:20:47;;;;;;;5.68;1.83;;;4.20;99.90;;;;;;4983948;28;20518;-71
2022/03/05 08:23:13;;;;;;;3.38;2.10;;;4.40;99.90;;;;;;4985729;28;20034;-71
2022/03/05 08:25:39;;;;;;;8.98;2.47;;;4.60;99.90;;;;;;4986299;28;20058;-73
2022/03/05 08:28:06;;;;;;;3.47;1.75;;;4.80;99.90;;;;;;5002236;28;20085;-73
2022/03/05 08:30:32;;;;;;;6.78;2.65;;;4.90;99.90;;;;;;5005189;28;20402;-72
2022/03/05 08:32:58;;;;;;;4.20;2.47;;;5.00;99.90;;;;;;5003952;28;20045;-72
2022/03/05 08:35:24;;;;;;;5.22;2.05;;;5.10;99.90;;;;;;5005321;28;20098;-73
2022/03/05 08:37:50;;;;;;;4.57;2.67;;;5.20;99.90;;;;;;4998439;28;20050;-70
2022/03/05 08:40:17;;;;;;;13.38;3.67;;;5.40;99.90;;;;;;4991897;28;20031;-72
2022/03/05 08:42:44;;;;;;;6.00;3.00;;;5.50;99.90;;;;;;4990188;28;20094;-73
2022/03/05 08:45:11;;;;;;;5.35;2.20;;;5.60;99.90;;;;;;4986408;28;20019;-72
2022/03/05 08:47:39;;;;;;;8.05;3.08;;;5.70;99.90;;;;;;4985506;28;20118;-73
2022/03/05 08:50:06;;;;;;;6.57;2.83;;;5.80;99.90;;;;;;4993147;28;20090;-73
2022/03/05 08:52:36;;;;;;;5.78;2.60;;;5.80;99.90;;;;;;4995828;28;20035;-72
2022/03/05 08:55:10;;;;;;;5.45;2.55;;;5.80;99.90;;;;;;5003696;28;20026;-75
2022/03/05 08:57:37;;;;;;;7.13;2.72;;;5.90;99.90;;;;;;4986816;28;20030;-72
2022/03/05 09:00:08;;;;;;;7.93;2.95;;;6.10;99.90;;;;;;5005026;28;20048;-71
2022/03/05 09:02:34;;;;;;;5.97;2.92;;;6.10;99.90;;;;;;5004643;28;20038;-73
2022/03/05 09:04:59;;;;;;;5.88;2.90;;;6.20;99.90;;;;;;5002353;28;20034;-73
2022/03/05 09:07:25;;;;;;;10.55;2.78;;;6.20;99.90;;;;;;5003151;28;20133;-71
2022/03/05 09:09:50;;;;;;;11.02;3.45;;;6.20;99.90;;;;;;5003611;28;20524;-74
2022/03/05 09:12:16;;;;;;;6.65;2.90;;;6.20;99.90;;;;;;5001427;28;20517;-73
2022/03/05 09:14:42;;;;;;;6.80;3.17;;;6.20;99.90;;;;;;4998190;28;20034;-72
2022/03/05 09:17:08;;;;;;;6.10;2.60;;;6.30;99.90;;;;;;5003245;28;20030;-74
2022/03/05 09:19:34;;;;;;;7.32;2.85;;;6.40;99.90;;;;;;4998015;28;20493;-71
2022/03/05 09:21:59;;;;;;;6.55;3.28;;;6.60;99.90;;;;;;4999797;28;20106;-74
2022/03/05 09:24:25;;;;;;;8.98;3.33;;;6.60;99.90;;;;;;5004181;28;20061;-74
2022/03/05 09:26:51;;;;;;;6.80;2.67;;;6.60;99.90;;;;;;4987228;28;20030;-72
2022/03/05 09:29:16;;;;;;;7.20;3.15;;;6.70;99.90;;;;;;4990675;28;20384;-72
2022/03/05 09:31:42;;;;;;;6.72;3.20;;;6.90;99.90;;;;;;5005306;28;20022;-72
2022/03/05 09:34:08;;;;;;;6.97;2.67;;;7.20;99.90;;;;;;5000721;28;20026;-74
2022/03/05 09:36:36;;;;;;;5.65;2.90;;;7.30;99.90;;;;;;4993771;28;20037;-73
2022/03/05 09:39:03;;;;;;;8.15;3.55;;;7.60;99.90;;;;;;4997676;28;20038;-73
2022/03/05 09:41:29;;;;;;;14.48;3.72;;;7.60;99.90;;;;;;4998905;28;20034;-72
2022/03/05 09:43:54;;;;;;;7.10;3.17;;;7.70;99.90;;;;;;5000856;28;20084;-73
2022/03/05 09:46:22;;;;;;;11.30;3.45;;;7.70;99.90;;;;;;4982120;28;20077;-73
2022/03/05 09:48:52;;;;;;;11.93;3.42;;;7.80;99.90;;;;;;4998293;28;20076;-75
2022/03/05 09:51:20;;;;;;;8.13;2.80;;;8.00;99.90;;;;;;5021890;28;20077;-71
2022/03/05 09:53:46;;;;;;;5.38;2.78;;;8.10;99.90;;;;;;4995321;28;20023;-72
2022/03/05 09:56:12;;;;;;;7.20;2.88;;;8.20;99.90;;;;;;5004686;28;20111;-73
2022/03/05 09:58:43;;;;;;;5.40;2.47;;;8.20;99.90;;;;;;5006377;28;20474;-73
2022/03/05 10:01:09;;;;;;;6.10;3.00;;;8.10;99.90;;;;;;5007081;28;20178;-75
2022/03/05 10:03:44;;;;;;;7.13;3.08;;;8.10;99.90;;;;;;5008153;28;20034;-73
2022/03/05 10:06:17;;;;;;;6.00;3.05;;;8.10;99.90;;;;;;5007418;28;20034;-74
2022/03/05 10:08:45;;;;;;;9.90;4.18;;;8.00;99.90;;;;;;5007396;28;20058;-72
2022/03/05 10:11:12;;;;;;;9.55;3.35;;;8.20;99.90;;;;;;5007794;28;20061;-73
2022/03/05 10:13:40;;;;;;;6.07;2.83;;;8.30;99.90;;;;;;5007564;28;20073;-74
2022/03/05 10:16:29;;;;;;;4.20;2.50;;;8.50;99.90;;;;;;5007975;28;20050;-73
2022/03/05 10:18:56;;;;;;;7.80;2.97;;;8.60;99.90;;;;;;5007116;28;20569;-73
2022/03/05 10:21:32;;;;;;;6.20;3.30;;;8.70;99.90;;;;;;5007509;28;20038;-73
2022/03/05 10:24:09;;;;;;;8.07;2.75;;;8.80;99.90;;;;;;5006001;28;20018;-72
2022/03/05 10:26:53;;;;;;;4.82;2.65;;;9.00;99.90;;;;;;5006985;28;20034;-73
2022/03/05 10:29:41;;;;;;;12.05;2.85;;;9.20;99.90;;;;;;5006344;28;20030;-72
2022/03/05 10:32:09;;;;;;;5.47;2.95;;;9.30;99.90;;;;;;5007007;28;20034;-75
2022/03/05 10:34:56;;;;;;;7.18;2.65;;;9.60;99.90;;;;;;5006725;28;20066;-74
2022/03/05 10:37:22;;;;;;;6.70;2.78;;;9.70;99.90;;;;;;5005863;28;20038;-73
2022/03/05 10:39:49;;;;;;;5.90;2.85;;;9.90;99.90;;;;;;5006483;28;20034;-72
2022/03/05 10:42:24;;;;;;;5.03;2.40;;;10.10;99.90;;;;;;5006597;28;20047;-74
2022/03/05 10:45:07;;;;;;;8.60;3.80;;;10.20;99.90;;;;;;5006723;28;20199;-72
2022/03/05 10:47:39;;;;;;;11.90;2.75;;;10.20;99.90;;;;;;5006738;28;20033;-73
2022/03/05 10:50:30;;;;;;;5.80;2.97;;;10.30;99.90;;;;;;5004812;28;20058;-72
2022/03/05 10:53:00;;;;;;;4.15;2.55;;;10.30;99.90;;;;;;4993562;28;20043;-72
2022/03/05 10:55:27;;;;;;;4.38;2.13;;;10.40;99.90;;;;;;4997673;28;20049;-72
2022/03/05 10:58:16;;;;;;;4.95;2.38;;;10.60;99.90;;;;;;4999549;28;20033;-73
2022/03/05 11:00:45;;;;;;;4.38;2.00;;;10.60;99.90;;;;;;4986791;28;20043;-75
2022/03/05 11:03:11;;;;;;;6.03;2.10;;;10.70;99.90;;;;;;4987572;28;20054;-73
2022/03/05 11:05:37;;;;;;;6.72;3.15;;;10.80;99.90;;;;;;4994702;28;20034;-73
2022/03/05 11:08:05;;;;;;;6.55;2.13;;;11.00;99.90;;;;;;4990224;28;20047;-74
2022/03/05 11:10:31;;;;;;;5.90;2.33;;;11.10;99.90;;;;;;5005487;28;20128;-74
2022/03/05 11:12:59;;;;;;;6.28;2.92;;;11.10;99.90;;;;;;5006350;28;20485;-73
2022/03/05 11:15:27;;;;;;;3.72;2.10;;;11.10;99.90;;;;;;5005971;28;20029;-73
2022/03/05 11:17:54;;;;;;;3.85;2.17;;;11.10;99.90;;;;;;5004886;28;20038;-74
2022/03/05 11:20:20;;;;;;;5.25;2.30;;;11.00;99.90;;;;;;5004131;28;20018;-72
2022/03/05 11:22:51;;;;;;;4.80;1.95;;;11.10;99.90;;;;;;5005817;28;20094;-73
2022/03/05 11:25:31;;;;;;;8.35;2.72;;;11.30;99.90;;;;;;4992679;28;20023;-72
2022/03/05 11:28:00;;;;;;;4.93;2.65;;;11.60;99.90;;;;;;5003529;28;20029;-72
2022/03/05 11:30:38;;;;;;;7.47;2.75;;;11.70;99.90;;;;;;5006027;28;20081;-73
2022/03/05 11:33:08;;;;;;;7.05;2.70;;;11.90;99.90;;;;;;5006715;28;20058;-74
2022/03/05 11:35:34;;;;;;;5.28;2.40;;;12.00;99.90;;;;;;5006176;28;20068;-72
2022/03/05 11:38:00;;;;;;;5.28;2.65;;;12.20;99.90;;;;;;5004328;28;20155;-73
2022/03/05 11:40:41;;;;;;;5.03;2.20;;;12.30;99.90;;;;;;4989790;28;20042;-75
2022/03/05 11:43:24;;;;;;;4.22;1.92;;;12.40;99.90;;;;;;4993008;28;20035;-74
2022/03/05 11:46:02;;;;;;;5.70;2.45;;;12.40;99.90;;;;;;4997184;28;20394;-72
2022/03/05 11:48:34;;;;;;;8.82;3.05;;;12.50;99.90;;;;;;4998692;28;20041;-73
2022/03/05 11:51:16;;;;;;;9.38;2.58;;;12.70;99.90;;;;;;5003598;28;20110;-74
2022/03/05 11:54:11;;;;;;;6.93;2.72;;;12.90;99.90;;;;;;5005851;28;20018;-72
2022/03/05 11:56:37;;;;;;;8.98;2.83;;;13.00;99.90;;;;;;5005649;28;20046;-72
2022/03/05 11:59:31;;;;;;;6.53;2.75;;;13.10;99.90;;;;;;5005635;28;20045;-71
2022/03/05 12:01:57;;;;;;;4.70;2.40;;;13.30;99.90;;;;;;5005548;28;20045;-73
2022/03/05 12:04:28;;;;;;;6.28;2.70;;;13.60;99.90;;;;;;5005314;28;20035;-73
2022/03/05 12:07:24;;;;;;;5.55;2.95;;;13.90;99.90;;;;;;5004030;28;20033;-73
2022/03/05 12:09:56;;;;;;;7.97;3.10;;;14.10;99.90;;;;;;4982540;28;20045;-73
2022/03/05 12:12:22;;;;;;;7.25;2.67;;;14.30;99.90;;;;;;5005192;28;20026;-73
2022/03/05 12:15:06;;;;;;;6.70;2.30;;;14.60;99.90;;;;;;5005450;28;20087;-73
2022/03/05 12:17:46;;;;;;;6.57;3.53;;;14.70;98.10;;;;;;5005174;28;20077;-73
2022/03/05 12:20:16;;;;;;;5.82;2.47;;;14.70;98.00;;;;;;5002352;28;20031;-73
2022/03/05 12:22:58;;;;;;;7.07;2.58;;;14.50;99.60;;;;;;4988061;28;20485;-73
2022/03/05 12:25:25;;;;;;;5.75;2.55;;;14.50;98.70;;;;;;4991241;28;20091;-74
2022/03/05 12:27:51;;;;;;;6.53;2.55;;;14.70;97.50;;;;;;5004705;28;20109;-71
2022/03/05 12:30:22;;;;;;;8.68;2.72;;;14.70;95.90;;;;;;5005355;28;20431;-74
2022/03/05 12:32:48;;;;;;;8.65;2.63;;;14.80;98.50;;;;;;5004758;28;20057;-74
2022/03/05 12:35:17;;;;;;;5.38;2.17;;;15.10;98.30;;;;;;5005170;28;20411;-75
2022/03/05 12:37:43;;;;;;;6.40;2.70;;;15.40;96.20;;;;;;5003436;28;20033;-71
2022/03/05 12:40:11;;;;;;;5.45;2.05;;;15.20;94.50;;;;;;5003776;28;20109;-73
2022/03/05 12:42:48;;;;;;;5.93;2.08;;;15.10;95.10;;;;;;5004373;28;20042;-76
2022/03/05 12:45:20;;;;;;;9.15;2.65;;;15.10;94.70;;;;;;5004259;28;20082;-73
2022/03/05 12:47:46;;;;;;;3.28;1.73;;;15.30;95.10;;;;;;5003996;28;20022;-73
2022/03/05 12:50:23;;;;;;;6.97;2.20;;;15.50;95.50;;;;;;5004345;28;20026;-74
2022/03/05 12:53:00;;;;;;;4.53;2.35;;;15.30;93.90;;;;;;5005130;28;20026;-73
2022/03/05 12:55:28;;;;;;;7.82;2.70;;;15.10;94.10;;;;;;4987187;28;20042;-72
2022/03/05 12:57:57;;;;;;;8.77;3.25;;;15.30;93.40;;;;;;5004889;28;20086;-73